Time;durP1;ratioP1;P1;durP2;ratioP2;P2;SDS_P1;SDS_P2;PMS_P1;PMS_P2;Temp;Humidity;BMP_temperature;BMP_pressure;BME280_temperature;BME280_humidity;BME280_pressure;Samples;Min_cycle;Max_cycle;Signal;HPM_P1;HPM_P2
2021/06/09 00:01:02;;;;;;;9.07;8.15;;;20.70;99.90;;;;;;5096094;28;20074;-45
2021/06/09 00:03:27;;;;;;;11.40;8.57;;;20.60;99.90;;;;;;5095960;28;20035;-44
2021/06/09 00:05:53;;;;;;;9.32;8.23;;;20.50;99.90;;;;;;5077160;28;20044;-45
2021/06/09 00:08:19;;;;;;;11.85;7.60;;;20.50;99.90;;;;;;5095688;28;20115;-45
2021/06/09 00:10:48;;;;;;;9.73;8.15;;;20.40;99.90;;;;;;5077209;28;20115;-46
2021/06/09 00:13:15;;;;;;;10.50;7.78;;;20.50;99.90;;;;;;5095524;28;20032;-45
2021/06/09 00:15:41;;;;;;;9.70;7.82;;;;;;;;;;5095410;28;20028;-45
2021/06/09 00:18:07;;;;;;;9.43;7.75;;;;;;;;;;5093569;28;20048;-45
2021/06/09 00:20:33;;;;;;;10.57;7.38;;;20.00;99.90;;;;;;5076937;28;20071;-46
2021/06/09 00:22:59;;;;;;;8.43;7.47;;;20.00;99.90;;;;;;5095544;28;20055;-45
2021/06/09 00:25:25;;;;;;;11.60;8.63;;;19.80;99.90;;;;;;5060153;28;20382;-46
2021/06/09 00:27:54;;;;;;;10.38;7.97;;;19.80;99.90;;;;;;5095410;28;20036;-46
2021/06/09 00:30:24;;;;;;;8.65;7.75;;;19.90;99.90;;;;;;5095376;28;20071;-45
2021/06/09 00:32:49;;;;;;;10.45;8.10;;;19.80;99.90;;;;;;5108904;28;20494;-45
2021/06/09 00:35:15;;;;;;;11.57;8.88;;;19.90;99.90;;;;;;5079466;28;20044;-45
2021/06/09 00:37:41;;;;;;;13.35;7.88;;;19.90;99.90;;;;;;5076479;28;20547;-45
2021/06/09 00:40:09;;;;;;;10.35;8.10;;;19.80;99.90;;;;;;5111298;28;20047;-46
2021/06/09 00:42:35;;;;;;;10.48;8.10;;;19.80;99.90;;;;;;5078373;28;20036;-48
2021/06/09 00:45:01;;;;;;;12.45;8.60;;;19.80;99.90;;;;;;5094998;28;20063;-46
2021/06/09 00:47:27;;;;;;;10.68;7.85;;;;;;;;;;5095284;28;20092;-47
2021/06/09 00:49:53;;;;;;;11.13;8.70;;;19.70;99.90;;;;;;5095028;28;20032;-44
2021/06/09 00:52:24;;;;;;;12.27;7.80;;;19.70;99.90;;;;;;5059640;28;20044;-46
2021/06/09 00:54:50;;;;;;;10.65;7.90;;;19.70;99.90;;;;;;5093030;28;20440;-46
2021/06/09 00:57:17;;;;;;;9.43;7.65;;;19.70;99.90;;;;;;5094741;28;20040;-46
2021/06/09 00:59:43;;;;;;;10.23;6.95;;;19.70;99.90;;;;;;5105904;28;20046;-46
2021/06/09 01:02:09;;;;;;;11.05;8.27;;;19.70;99.90;;;;;;5115337;28;20111;-46
2021/06/09 01:04:35;;;;;;;9.75;7.35;;;19.70;99.90;;;;;;5115186;28;20031;-46
2021/06/09 01:07:02;;;;;;;8.05;7.25;;;;;;;;;;5115221;28;20032;-46
2021/06/09 01:09:28;;;;;;;9.60;6.95;;;;;;;;;;5115423;28;20078;-46
2021/06/09 01:11:55;;;;;;;9.77;7.57;;;;;;;;;;5112273;28;20135;-46
2021/06/09 01:14:21;;;;;;;10.10;7.80;;;;;;;;;;5112574;28;20024;-46
2021/06/09 01:16:49;;;;;;;10.15;7.15;;;;;;;;;;5114799;28;20032;-46
2021/06/09 01:19:16;;;;;;;12.05;7.03;;;;;;;;;;5114443;28;20120;-46
2021/06/09 01:21:42;;;;;;;8.50;6.97;;;;;;;;;;5099368;28;20115;-46
2021/06/09 01:24:08;;;;;;;8.68;7.68;;;;;;;;;;5094262;28;20440;-46
2021/06/09 01:26:35;;;;;;;10.93;7.60;;;;;;;;;;5092167;28;20040;-46
2021/06/09 01:29:03;;;;;;;11.82;7.45;;;;;;;;;;5094237;28;20470;-46
2021/06/09 01:31:28;;;;;;;9.23;7.55;;;19.20;99.90;;;;;;5094018;28;20119;-47
2021/06/09 01:33:55;;;;;;;11.82;8.75;;;19.30;99.90;;;;;;5058802;28;20130;-46
2021/06/09 01:36:22;;;;;;;17.50;12.95;;;19.30;99.90;;;;;;5113437;28;20031;-46
2021/06/09 01:38:50;;;;;;;18.58;15.95;;;19.20;99.90;;;;;;5114346;28;20036;-46
2021/06/09 01:41:23;;;;;;;21.88;17.02;;;19.20;99.90;;;;;;5114492;28;20072;-45
2021/06/09 01:43:51;;;;;;;21.75;19.38;;;19.20;99.90;;;;;;5114508;28;20038;-44
2021/06/09 01:46:17;;;;;;;23.63;21.35;;;19.00;99.90;;;;;;5112467;28;20047;-44
2021/06/09 01:48:43;;;;;;;25.95;23.15;;;19.00;99.90;;;;;;5095725;28;20054;-44
2021/06/09 01:51:09;;;;;;;27.90;25.13;;;19.00;99.90;;;;;;5112784;28;20382;-45
2021/06/09 01:53:35;;;;;;;19.55;17.45;;;19.10;99.90;;;;;;5095549;28;20044;-45
2021/06/09 01:56:01;;;;;;;23.25;20.88;;;19.20;99.90;;;;;;5104373;28;20445;-45
2021/06/09 01:58:27;;;;;;;27.80;24.33;;;19.20;99.90;;;;;;5093801;28;20039;-45
2021/06/09 02:00:54;;;;;;;15.15;13.38;;;19.10;99.90;;;;;;5093808;28;20042;-45
2021/06/09 02:03:20;;;;;;;19.40;16.10;;;19.20;99.90;;;;;;5093942;28;20039;-45
2021/06/09 02:05:46;;;;;;;15.60;14.05;;;19.20;99.90;;;;;;5093811;28;20032;-46
2021/06/09 02:08:14;;;;;;;13.40;11.65;;;19.20;99.90;;;;;;5075015;28;20384;-46
2021/06/09 02:10:42;;;;;;;11.57;9.18;;;19.20;99.90;;;;;;5091883;28;20055;-46
2021/06/09 02:13:11;;;;;;;9.50;8.60;;;19.00;99.90;;;;;;5074948;28;20040;-45
2021/06/09 02:15:37;;;;;;;11.30;9.23;;;18.80;99.90;;;;;;5093370;28;20028;-45
2021/06/09 02:18:12;;;;;;;9.23;8.32;;;18.80;99.90;;;;;;5074799;28;20075;-45
2021/06/09 02:20:41;;;;;;;10.68;8.77;;;18.80;99.90;;;;;;5093348;28;20440;-46
2021/06/09 02:23:10;;;;;;;8.90;8.00;;;18.80;99.90;;;;;;5093494;28;20115;-45
2021/06/09 02:25:37;;;;;;;10.77;8.75;;;18.90;99.90;;;;;;5093649;28;20111;-45
2021/06/09 02:28:04;;;;;;;9.75;8.65;;;18.90;99.90;;;;;;5093837;28;20081;-45
2021/06/09 02:30:32;;;;;;;11.60;8.43;;;18.90;99.90;;;;;;5074798;28;20043;-45
2021/06/09 02:32:58;;;;;;;10.88;8.38;;;18.90;99.90;;;;;;5058040;28;20044;-45
2021/06/09 02:35:24;;;;;;;16.92;9.13;;;18.90;99.90;;;;;;5058021;28;20115;-45
2021/06/09 02:37:51;;;;;;;9.68;8.68;;;18.90;99.90;;;;;;5093363;28;20131;-46
2021/06/09 02:40:19;;;;;;;9.35;8.40;;;18.90;99.90;;;;;;5096338;28;20111;-46
2021/06/09 02:42:45;;;;;;;12.50;8.80;;;18.90;99.90;;;;;;5097518;28;20447;-44
2021/06/09 02:45:18;;;;;;;11.55;9.43;;;18.90;99.90;;;;;;5097572;28;20032;-45
2021/06/09 02:47:50;;;;;;;9.80;8.57;;;18.90;99.90;;;;;;5097784;28;20038;-45
2021/06/09 02:50:19;;;;;;;12.75;8.70;;;18.90;99.90;;;;;;5097388;28;20035;-45
2021/06/09 02:52:53;;;;;;;9.70;8.02;;;18.90;99.90;;;;;;5095676;28;20047;-45
2021/06/09 02:55:32;;;;;;;9.10;8.20;;;18.80;99.90;;;;;;5097098;28;20031;-47
2021/06/09 02:58:06;;;;;;;10.55;8.75;;;18.70;99.90;;;;;;5097054;28;20161;-48
2021/06/09 03:00:39;;;;;;;13.57;8.85;;;18.60;99.90;;;;;;5097278;28;20386;-46
2021/06/09 03:03:38;;;;;;;11.35;9.05;;;18.30;99.90;;;;;;5096990;28;20020;-45
2021/06/09 03:06:10;;;;;;;11.57;8.98;;;18.30;99.90;;;;;;5076146;28;20140;-46
2021/06/09 03:08:35;;;;;;;12.73;9.95;;;18.20;99.90;;;;;;5096887;28;20036;-44
2021/06/09 03:11:15;;;;;;;12.45;9.57;;;18.20;99.90;;;;;;5096749;28;20107;-45
2021/06/09 03:15:09;;;;;;;9.85;8.38;;;18.10;99.90;;;;;;5096710;28;20059;-44
2021/06/09 03:17:08;;;;;;;13.50;9.25;;;18.10;99.90;;;;;;5096907;28;20062;-46
2021/06/09 03:20:09;;;;;;;12.82;9.15;;;18.20;99.90;;;;;;5096696;28;20476;-44
2021/06/09 03:22:46;;;;;;;10.82;8.80;;;18.20;99.90;;;;;;5034266;28;20531;-44
2021/06/09 03:25:19;;;;;;;13.23;9.05;;;18.20;99.90;;;;;;5034252;28;20040;-44
2021/06/09 03:27:51;;;;;;;9.68;8.70;;;;;;;;;;5034354;28;20057;-44
2021/06/09 03:30:20;;;;;;;12.80;8.93;;;17.90;99.90;;;;;;5034231;28;20034;-45
2021/06/09 03:32:54;;;;;;;11.93;8.40;;;;;;;;;;5034276;28;20175;-44
2021/06/09 03:35:26;;;;;;;12.60;9.30;;;;;;;;;;5034174;28;20116;-44
2021/06/09 03:37:53;;;;;;;12.25;9.05;;;;;;;;;;5001242;28;20423;-44
2021/06/09 03:40:23;;;;;;;10.32;8.52;;;;;;;;;;5034030;28;20041;-44
2021/06/09 03:42:52;;;;;;;12.00;8.75;;;;;;;;;;5017778;28;20037;-46
2021/06/09 03:45:19;;;;;;;10.30;9.10;;;;;;;;;;5033917;28;20029;-45
2021/06/09 03:47:45;;;;;;;11.43;8.95;;;;;;;;;;5033705;28;20432;-45
2021/06/09 03:50:13;;;;;;;12.77;8.90;;;;;;;;;;5033542;28;20112;-46
2021/06/09 03:52:39;;;;;;;9.55;8.63;;;;;;;;;;5033197;28;20029;-45
2021/06/09 03:55:08;;;;;;;10.27;9.13;;;;;;;;;;5033768;28;20031;-44
2021/06/09 03:57:36;;;;;;;12.00;9.05;;;;;;;;;;5033522;28;20063;-45
2021/06/09 04:00:03;;;;;;;14.40;10.18;;;;;;;;;;5082006;28;20363;-44
2021/06/09 04:02:29;;;;;;;14.40;9.27;;;;;;;;;;5077290;28;20119;-44
2021/06/09 04:04:58;;;;;;;14.57;9.98;;;18.60;99.90;;;;;;5095745;28;20540;-45
2021/06/09 04:07:27;;;;;;;9.55;8.52;;;18.60;99.90;;;;;;5077264;28;20032;-45
2021/06/09 04:09:55;;;;;;;11.10;8.80;;;18.60;99.90;;;;;;5095649;28;20035;-45
2021/06/09 04:12:22;;;;;;;10.35;9.30;;;18.60;99.90;;;;;;5095792;28;20059;-44
2021/06/09 04:14:52;;;;;;;9.45;8.27;;;18.70;99.90;;;;;;5094033;28;20035;-45
2021/06/09 04:17:26;;;;;;;10.20;8.57;;;18.80;99.90;;;;;;5095462;28;20096;-44
2021/06/09 04:19:54;;;;;;;13.15;8.30;;;18.90;99.90;;;;;;5095521;28;20035;-44
2021/06/09 04:22:22;;;;;;;11.20;8.80;;;18.90;99.90;;;;;;5095518;28;20110;-44
2021/06/09 04:24:49;;;;;;;12.82;9.10;;;19.00;99.90;;;;;;5076726;28;20032;-45
2021/06/09 04:27:20;;;;;;;12.30;8.50;;;19.00;99.90;;;;;;5095599;28;20387;-45
2021/06/09 04:29:48;;;;;;;10.85;8.93;;;19.10;99.90;;;;;;5095344;28;20028;-45
2021/06/09 04:32:13;;;;;;;9.20;8.20;;;19.10;99.90;;;;;;5113260;28;20027;-45
2021/06/09 04:34:58;;;;;;;12.77;8.93;;;19.20;99.90;;;;;;5115668;28;20111;-45
2021/06/09 04:37:25;;;;;;;10.02;8.38;;;;;;;;;;5115463;28;20069;-45
2021/06/09 04:39:52;;;;;;;11.63;9.55;;;;;;;;;;5115619;28;20432;-44
2021/06/09 04:42:19;;;;;;;11.07;9.10;;;19.80;99.90;;;;;;5116227;28;20031;-45
2021/06/09 04:44:45;;;;;;;14.70;9.38;;;19.80;99.90;;;;;;5115439;28;20172;-45
2021/06/09 04:47:12;;;;;;;9.95;8.55;;;19.90;99.90;;;;;;5115639;28;20020;-45
2021/06/09 04:49:41;;;;;;;10.23;9.13;;;20.00;99.90;;;;;;5096616;28;20036;-45
2021/06/09 04:52:08;;;;;;;11.23;9.05;;;20.00;99.90;;;;;;5115631;28;20035;-45
2021/06/09 04:54:34;;;;;;;11.10;9.25;;;20.00;99.90;;;;;;5096548;28;20035;-45
2021/06/09 04:57:01;;;;;;;14.38;9.00;;;20.30;99.90;;;;;;5115150;28;20032;-45
2021/06/09 04:59:27;;;;;;;11.10;8.88;;;20.30;99.90;;;;;;5115117;28;20063;-45
2021/06/09 05:01:53;;;;;;;10.57;8.60;;;20.40;99.90;;;;;;5114235;28;20087;-45
2021/06/09 05:04:19;;;;;;;8.07;7.25;;;20.40;99.90;;;;;;5115233;28;20034;-44
2021/06/09 05:06:45;;;;;;;11.02;8.05;;;20.40;99.90;;;;;;5096496;28;20043;-45
2021/06/09 05:09:11;;;;;;;9.27;8.38;;;20.40;99.90;;;;;;5114884;28;20024;-45
2021/06/09 05:11:53;;;;;;;19.10;9.25;;;20.50;99.90;;;;;;5114936;28;20031;-45
2021/06/09 05:14:25;;;;;;;10.00;8.10;;;20.70;99.90;;;;;;5115009;28;20420;-45
2021/06/09 05:16:54;;;;;;;11.70;8.15;;;20.70;99.90;;;;;;5114958;28;20256;-45
2021/06/09 05:19:22;;;;;;;10.15;8.13;;;20.70;99.90;;;;;;5114541;28;20054;-45
2021/06/09 05:21:52;;;;;;;9.77;8.77;;;20.80;99.90;;;;;;5114862;28;20023;-45
2021/06/09 05:24:21;;;;;;;12.00;8.13;;;21.00;99.90;;;;;;5114740;28;20435;-45
2021/06/09 05:26:48;;;;;;;11.70;8.70;;;21.10;99.90;;;;;;5114710;28;20547;-45
2021/06/09 05:29:16;;;;;;;9.85;8.45;;;21.20;99.90;;;;;;5114566;28;20019;-45
2021/06/09 05:31:43;;;;;;;10.60;7.63;;;21.10;99.90;;;;;;5095914;28;20039;-45
2021/06/09 05:34:11;;;;;;;9.57;8.57;;;21.10;99.90;;;;;;5114476;28;20382;-45
2021/06/09 05:36:38;;;;;;;11.32;7.80;;;21.00;99.90;;;;;;5114743;28;20124;-45
2021/06/09 05:39:05;;;;;;;10.13;9.00;;;21.10;99.90;;;;;;5114336;28;20426;-45
2021/06/09 05:41:31;;;;;;;10.18;7.90;;;21.20;99.90;;;;;;5111398;28;20024;-45
2021/06/09 05:43:56;;;;;;;9.60;8.43;;;21.30;99.90;;;;;;5113669;28;20076;-45
2021/06/09 05:46:25;;;;;;;9.60;8.65;;;21.40;99.90;;;;;;5057582;28;20032;-46
2021/06/09 05:48:51;;;;;;;9.48;8.23;;;21.50;99.90;;;;;;5074708;28;20052;-45
2021/06/09 05:51:18;;;;;;;10.52;8.70;;;;;;;;;;5091085;28;20522;-46
2021/06/09 05:53:44;;;;;;;11.68;7.90;;;21.70;99.90;;;;;;5088615;28;20111;-45
2021/06/09 05:56:10;;;;;;;9.18;7.78;;;21.60;99.90;;;;;;5091046;28;20040;-46
2021/06/09 05:58:39;;;;;;;11.23;8.88;;;21.60;99.90;;;;;;5074160;28;20454;-45
2021/06/09 06:01:07;;;;;;;12.00;8.68;;;;;;;;;;5088553;28;20448;-46
2021/06/09 06:03:33;;;;;;;10.23;8.88;;;21.70;99.90;;;;;;5091127;28;20024;-46
2021/06/09 06:06:01;;;;;;;8.77;7.97;;;21.80;99.90;;;;;;5057129;28;20036;-46
2021/06/09 06:08:28;;;;;;;11.48;7.68;;;22.00;99.90;;;;;;5090894;28;20527;-45
2021/06/09 06:10:55;;;;;;;8.45;7.32;;;22.00;99.90;;;;;;5090762;28;20063;-46
2021/06/09 06:13:25;;;;;;;13.73;7.78;;;22.20;99.90;;;;;;5090775;28;20036;-46
2021/06/09 06:15:57;;;;;;;7.80;6.55;;;22.20;99.90;;;;;;5090846;28;20028;-46
2021/06/09 06:18:30;;;;;;;11.07;7.70;;;22.10;99.90;;;;;;5110077;28;20497;-46
2021/06/09 06:20:56;;;;;;;8.88;6.70;;;22.00;99.90;;;;;;5113792;28;20046;-43
2021/06/09 06:23:24;;;;;;;8.68;7.07;;;22.30;99.90;;;;;;5113619;28;20474;-44
2021/06/09 06:25:50;;;;;;;9.57;6.90;;;22.30;99.90;;;;;;5113613;28;20100;-45
2021/06/09 06:28:16;;;;;;;8.95;6.68;;;22.50;99.90;;;;;;5112216;28;20128;-48
2021/06/09 06:30:42;;;;;;;9.13;7.20;;;;;;;;;;5113332;28;20062;-50
2021/06/09 06:33:09;;;;;;;8.75;7.43;;;22.90;99.90;;;;;;5094356;28;20165;-47
2021/06/09 06:35:36;;;;;;;8.50;6.25;;;22.90;99.90;;;;;;5111342;28;20035;-45
2021/06/09 06:38:02;;;;;;;8.18;7.07;;;22.90;99.90;;;;;;5108344;28;20090;-44
2021/06/09 06:40:28;;;;;;;9.38;6.90;;;;;;;;;;5097866;28;20111;-43
2021/06/09 06:42:56;;;;;;;8.63;6.72;;;23.10;99.90;;;;;;5110536;28;20036;-44
2021/06/09 06:45:24;;;;;;;8.25;6.50;;;23.20;99.90;;;;;;5113445;28;20474;-44
2021/06/09 06:47:51;;;;;;;7.95;6.88;;;23.10;99.90;;;;;;5113550;28;20586;-45
2021/06/09 06:50:19;;;;;;;8.18;6.53;;;23.20;99.90;;;;;;5113594;28;20027;-45
2021/06/09 06:52:46;;;;;;;6.82;6.10;;;23.30;99.90;;;;;;5111392;28;20039;-45
2021/06/09 06:55:15;;;;;;;8.68;5.80;;;23.20;97.90;;;;;;5113612;28;20055;-45
2021/06/09 06:57:41;;;;;;;19.17;7.20;;;23.50;99.90;;;;;;5113650;28;20386;-45
2021/06/09 07:00:19;;;;;;;9.48;7.20;;;23.60;98.20;;;;;;5113276;28;20024;-45
2021/06/09 07:02:51;;;;;;;7.63;6.82;;;23.50;97.60;;;;;;5113948;28;20036;-44
2021/06/09 07:05:18;;;;;;;9.90;6.55;;;23.60;97.40;;;;;;5111241;28;20031;-45
2021/06/09 07:07:44;;;;;;;10.20;6.20;;;23.60;96.60;;;;;;5113533;28;20020;-46
2021/06/09 07:10:13;;;;;;;10.13;6.93;;;23.50;97.10;;;;;;5113673;28;20031;-43
2021/06/09 07:12:40;;;;;;;8.30;7.22;;;23.70;96.70;;;;;;5113578;28;20355;-46
2021/06/09 07:15:17;;;;;;;10.35;7.03;;;23.60;97.40;;;;;;5113499;28;20038;-46
2021/06/09 07:17:50;;;;;;;10.35;7.05;;;;;;;;;;5095676;28;20039;-45
2021/06/09 07:20:25;;;;;;;13.25;6.95;;;24.10;99.90;;;;;;5113036;28;20051;-45
2021/06/09 07:22:53;;;;;;;8.80;6.97;;;24.20;99.90;;;;;;5113637;28;20051;-44
2021/06/09 07:25:20;;;;;;;10.80;7.00;;;24.30;99.90;;;;;;5111570;28;20035;-45
2021/06/09 07:27:50;;;;;;;10.88;6.32;;;24.30;99.90;;;;;;5115347;28;20027;-45
2021/06/09 07:30:19;;;;;;;10.88;6.57;;;24.40;99.90;;;;;;5115582;28;20362;-44
2021/06/09 07:32:46;;;;;;;10.73;6.45;;;24.60;96.40;;;;;;5092028;28;20370;-45
2021/06/09 07:35:16;;;;;;;8.63;5.80;;;24.70;96.10;;;;;;5113995;28;20088;-44
2021/06/09 07:37:52;;;;;;;6.72;6.00;;;24.60;95.20;;;;;;5116809;28;20076;-45
2021/06/09 07:40:30;;;;;;;8.20;6.30;;;24.80;94.70;;;;;;5116731;28;20100;-45
2021/06/09 07:43:13;;;;;;;7.43;6.35;;;24.90;96.00;;;;;;5116253;28;20038;-45
2021/06/09 07:45:41;;;;;;;12.50;6.53;;;24.90;96.50;;;;;;5114834;28;20032;-44
2021/06/09 07:48:08;;;;;;;8.45;6.70;;;25.20;95.10;;;;;;5116379;28;20036;-44
2021/06/09 07:50:40;;;;;;;8.85;5.90;;;25.40;95.40;;;;;;5116350;28;20020;-45
2021/06/09 07:53:09;;;;;;;8.43;6.68;;;;;;;;;;5116321;28;20020;-45
2021/06/09 07:55:36;;;;;;;13.52;6.85;;;25.30;95.30;;;;;;5116075;28;20043;-45
2021/06/09 07:58:04;;;;;;;10.65;6.90;;;25.50;94.60;;;;;;5115254;28;20039;-43
2021/06/09 08:00:31;;;;;;;12.15;6.75;;;25.60;95.00;;;;;;5115774;28;20028;-44
2021/06/09 08:02:57;;;;;;;8.60;6.80;;;25.70;95.30;;;;;;5116415;28;20027;-43
2021/06/09 08:05:24;;;;;;;10.25;6.63;;;;;;;;;;5115720;28;20031;-43
2021/06/09 08:07:51;;;;;;;9.55;6.65;;;26.10;95.10;;;;;;5113380;28;20168;-43
2021/06/09 08:10:17;;;;;;;11.13;6.60;;;26.00;95.20;;;;;;5115627;28;20031;-44
2021/06/09 08:12:43;;;;;;;11.70;6.80;;;26.20;94.90;;;;;;5115186;28;20023;-44
2021/06/09 08:15:12;;;;;;;8.55;6.68;;;26.40;95.10;;;;;;5115583;28;20027;-43
2021/06/09 08:17:44;;;;;;;7.88;6.35;;;26.70;94.10;;;;;;5095913;28;20047;-43
2021/06/09 08:20:20;;;;;;;9.98;5.95;;;26.90;94.70;;;;;;5111408;28;20028;-47
2021/06/09 08:22:47;;;;;;;12.55;6.85;;;;;;;;;;5113161;28;20036;-45
2021/06/09 08:25:15;;;;;;;8.38;6.88;;;27.40;94.70;;;;;;5115277;28;20026;-42
2021/06/09 08:27:41;;;;;;;7.75;5.78;;;27.30;93.90;;;;;;5115011;28;20059;-43
2021/06/09 08:30:08;;;;;;;9.85;6.15;;;27.30;92.80;;;;;;5112417;28;20015;-45
2021/06/09 08:32:35;;;;;;;8.10;5.03;;;27.50;92.30;;;;;;5115238;28;20020;-43
2021/06/09 08:35:01;;;;;;;9.23;6.20;;;;;;;;;;5115400;28;20034;-44
2021/06/09 08:37:27;;;;;;;8.93;5.60;;;27.50;93.50;;;;;;5092081;28;20039;-52
2021/06/09 08:39:54;;;;;;;12.85;6.32;;;27.60;98.00;;;;;;5114725;28;20115;-46
2021/06/09 08:42:22;;;;;;;12.63;5.72;;;27.50;99.10;;;;;;5113597;28;20094;-44
2021/06/09 08:44:49;;;;;;;8.00;5.40;;;27.70;91.30;;;;;;5102151;28;20024;-43
2021/06/09 08:47:16;;;;;;;16.88;7.57;;;27.80;91.80;;;;;;5104976;28;20138;-47
2021/06/09 08:49:43;;;;;;;7.68;5.75;;;28.10;92.30;;;;;;5108058;28;20173;-48
2021/06/09 08:52:11;;;;;;;13.50;6.47;;;27.80;92.10;;;;;;5114927;28;20020;-47
2021/06/09 08:54:42;;;;;;;164.68;16.58;;;27.80;92.60;;;;;;5112631;28;20034;-48
2021/06/09 08:57:09;;;;;;;44.22;16.70;;;28.10;92.00;;;;;;5110747;28;20164;-47
2021/06/09 08:59:37;;;;;;;7.53;5.40;;;28.20;92.10;;;;;;5102616;28;20063;-44
2021/06/09 09:02:03;;;;;;;15.23;7.03;;;28.70;90.70;;;;;;5104836;28;20027;-46
2021/06/09 09:04:31;;;;;;;8.00;5.90;;;28.60;91.20;;;;;;5032465;28;20040;-48
2021/06/09 09:06:57;;;;;;;7.25;5.88;;;28.60;91.50;;;;;;5099274;28;20028;-47
2021/06/09 09:09:23;;;;;;;7.45;5.78;;;;;;;;;;5108441;28;20242;-47
2021/06/09 09:11:49;;;;;;;7.68;5.28;;;28.60;99.90;;;;;;5114518;28;20038;-45
2021/06/09 09:14:17;;;;;;;9.10;5.65;;;28.60;99.90;;;;;;5111294;28;20111;-45
2021/06/09 09:17:02;;;;;;;11.43;5.35;;;28.60;99.90;;;;;;5114503;28;20036;-45
2021/06/09 09:19:30;;;;;;;8.57;5.18;;;28.60;90.40;;;;;;5114194;28;20060;-49
2021/06/09 09:21:55;;;;;;;6.18;5.25;;;28.60;91.10;;;;;;5115025;28;20410;-48
2021/06/09 09:24:44;;;;;;;17.42;5.68;;;28.80;90.30;;;;;;5114740;28;20031;-45
2021/06/09 09:27:13;;;;;;;8.02;5.43;;;29.00;90.80;;;;;;5095386;28;20405;-47
2021/06/09 09:29:39;;;;;;;8.02;6.30;;;28.80;90.70;;;;;;5114720;28;20084;-47
2021/06/09 09:32:09;;;;;;;9.70;5.25;;;;;;;;;;5095434;28;20420;-47
2021/06/09 09:34:46;;;;;;;9.95;5.18;;;29.30;90.50;;;;;;5114150;28;20035;-46
2021/06/09 09:37:24;;;;;;;8.45;5.15;;;29.30;90.30;;;;;;5114619;28;20416;-45
2021/06/09 09:40:14;;;;;;;5.20;4.10;;;29.40;90.70;;;;;;5114541;28;20027;-46
2021/06/09 09:42:42;;;;;;;7.85;4.82;;;29.20;89.20;;;;;;5095888;28;20036;-46
2021/06/09 09:45:28;;;;;;;6.85;4.55;;;29.40;90.20;;;;;;5114633;28;20035;-45
2021/06/09 09:48:09;;;;;;;6.78;4.68;;;29.60;89.30;;;;;;5113741;28;20036;-47
2021/06/09 09:50:39;;;;;;;8.02;4.57;;;29.50;87.70;;;;;;5095245;28;20035;-46
2021/06/09 09:53:22;;;;;;;6.45;4.78;;;29.70;88.20;;;;;;5114344;28;20062;-46
2021/06/09 09:56:09;;;;;;;6.55;3.95;;;29.90;88.90;;;;;;5114017;28;20136;-46
2021/06/09 09:59:00;;;;;;;5.53;3.80;;;29.90;85.40;;;;;;5095213;28;20073;-47
2021/06/09 10:01:28;;;;;;;6.30;4.37;;;;;;;;;;5091395;28;20038;-48
2021/06/09 10:03:57;;;;;;;7.00;4.30;;;30.20;83.40;;;;;;5091154;28;20055;-48
2021/06/09 10:06:39;;;;;;;5.78;4.32;;;30.10;85.10;;;;;;5057159;28;20066;-46
2021/06/09 10:09:16;;;;;;;7.85;5.30;;;30.30;86.50;;;;;;5088999;28;20462;-48
2021/06/09 10:11:51;;;;;;;8.77;4.72;;;30.70;86.00;;;;;;5090943;28;20032;-46
2021/06/09 10:14:27;;;;;;;6.82;4.53;;;30.80;86.30;;;;;;5091406;28;20020;-45
2021/06/09 10:17:13;;;;;;;7.95;5.07;;;30.80;85.80;;;;;;5037401;28;20032;-47
2021/06/09 10:19:45;;;;;;;8.38;4.63;;;30.60;84.30;;;;;;5070895;28;20071;-49
2021/06/09 10:22:15;;;;;;;8.68;4.63;;;30.20;84.00;;;;;;5053576;28;20070;-47
2021/06/09 10:24:55;;;;;;;7.25;4.10;;;30.60;84.20;;;;;;5070358;28;20027;-48
2021/06/09 10:27:33;;;;;;;7.53;4.00;;;;;;;;;;5053578;28;20070;-48
2021/06/09 10:29:59;;;;;;;6.45;5.18;;;31.40;81.60;;;;;;5069237;28;20037;-54
2021/06/09 10:32:27;;;;;;;9.52;6.05;;;31.50;82.40;;;;;;5081021;28;20032;-46
2021/06/09 10:34:53;;;;;;;5.82;4.55;;;31.40;83.60;;;;;;5090796;28;20372;-49
2021/06/09 10:37:19;;;;;;;11.40;4.75;;;31.80;82.90;;;;;;5073508;28;20039;-48
2021/06/09 10:39:44;;;;;;;6.75;4.70;;;31.20;80.40;;;;;;5084524;28;20446;-48
2021/06/09 10:42:13;;;;;;;10.55;6.05;;;31.20;81.90;;;;;;5089558;28;20116;-49
2021/06/09 10:44:45;;;;;;;6.45;4.18;;;31.30;81.70;;;;;;5090996;28;20090;-49
2021/06/09 10:47:19;;;;;;;9.40;5.18;;;30.80;83.40;;;;;;5095712;28;20036;-49
2021/06/09 10:49:45;;;;;;;6.50;4.50;;;30.60;82.90;;;;;;5111531;28;20040;-47
2021/06/09 10:52:12;;;;;;;7.57;3.78;;;30.50;84.30;;;;;;5113917;28;20072;-47
2021/06/09 10:54:39;;;;;;;8.43;4.40;;;;;;;;;;5113082;28;20510;-48
2021/06/09 10:57:06;;;;;;;8.88;5.22;;;29.60;85.40;;;;;;5113035;28;20060;-48
2021/06/09 10:59:34;;;;;;;10.10;5.07;;;29.60;85.10;;;;;;5058106;28;20050;-48
2021/06/09 11:02:06;;;;;;;9.23;5.15;;;29.70;84.60;;;;;;5083202;28;20161;-48
2021/06/09 11:04:37;;;;;;;8.20;4.60;;;29.50;85.00;;;;;;5097168;28;20110;-48
2021/06/09 11:07:06;;;;;;;4.72;4.03;;;29.40;84.30;;;;;;5067506;28;20031;-47
2021/06/09 11:09:32;;;;;;;9.82;5.00;;;29.30;83.90;;;;;;5096667;28;20407;-48
2021/06/09 11:12:13;;;;;;;5.93;4.47;;;28.90;85.10;;;;;;5097135;28;20032;-47
2021/06/09 11:15:00;;;;;;;8.32;5.47;;;28.70;85.90;;;;;;5061142;28;20032;-48
2021/06/09 11:17:34;;;;;;;18.75;8.30;;;28.80;85.30;;;;;;5096331;28;20507;-47
2021/06/09 11:20:47;;;;;;;7.40;4.40;;;28.90;85.10;;;;;;5096810;28;20110;-45
2021/06/09 11:23:29;;;;;;;7.38;4.03;;;28.90;83.30;;;;;;5093737;28;20551;-46
2021/06/09 11:25:56;;;;;;;5.78;4.40;;;29.30;80.60;;;;;;5096526;28;20078;-46
2021/06/09 11:28:33;;;;;;;9.00;5.10;;;29.90;78.20;;;;;;5040334;28;20136;-45
2021/06/09 11:31:03;;;;;;;5.07;3.40;;;;;;;;;;5074520;28;20040;-45
2021/06/09 11:33:40;;;;;;;5.30;3.65;;;31.30;80.70;;;;;;5084006;28;20085;-45
2021/06/09 11:36:18;;;;;;;4.85;3.80;;;31.40;77.90;;;;;;5093693;28;20077;-45
2021/06/09 11:38:55;;;;;;;5.60;3.95;;;;;;;;;;5091995;28;20122;-45
2021/06/09 11:41:27;;;;;;;5.72;3.42;;;;;;;;;;5057324;28;20036;-46
2021/06/09 11:43:57;;;;;;;6.68;3.75;;;32.50;99.20;;;;;;5090762;28;20550;-45
2021/06/09 11:46:35;;;;;;;5.10;3.38;;;32.50;74.60;;;;;;5093452;28;20020;-48
2021/06/09 11:49:04;;;;;;;7.43;4.35;;;32.50;76.30;;;;;;5086854;28;20036;-44
2021/06/09 11:51:43;;;;;;;5.93;3.55;;;32.60;76.80;;;;;;5040427;28;20028;-44
2021/06/09 11:54:15;;;;;;;6.38;3.65;;;32.90;75.80;;;;;;5073475;28;20472;-44
2021/06/09 11:56:43;;;;;;;7.53;3.08;;;32.60;74.90;;;;;;5073757;28;20037;-44
2021/06/09 11:59:25;;;;;;;5.60;3.25;;;32.60;76.00;;;;;;5082987;28;20503;-43
2021/06/09 12:01:53;;;;;;;4.72;2.80;;;33.10;72.50;;;;;;5095728;28;20468;-44
2021/06/09 12:04:21;;;;;;;5.18;2.97;;;32.60;73.60;;;;;;5060457;28;20032;-44
2021/06/09 12:07:08;;;;;;;7.07;3.00;;;32.60;74.00;;;;;;5096055;28;20024;-43
2021/06/09 12:09:34;;;;;;;4.43;2.85;;;32.40;71.10;;;;;;5095624;28;20024;-43
2021/06/09 12:12:03;;;;;;;6.60;3.08;;;32.90;74.90;;;;;;5095699;28;20111;-44
2021/06/09 12:14:33;;;;;;;4.68;2.72;;;32.90;74.00;;;;;;5096338;28;20027;-44
2021/06/09 12:17:10;;;;;;;16.77;3.63;;;32.70;72.80;;;;;;5095396;28;20048;-44
2021/06/09 12:19:39;;;;;;;3.53;2.88;;;33.10;71.20;;;;;;5096123;28;20036;-44
2021/06/09 12:22:07;;;;;;;4.25;2.65;;;33.30;71.10;;;;;;5095947;28;20032;-44
2021/06/09 12:24:35;;;;;;;3.47;1.95;;;33.50;72.60;;;;;;5095430;28;20454;-44
2021/06/09 12:27:09;;;;;;;3.55;2.80;;;33.10;85.40;;;;;;5095444;28;20459;-43
2021/06/09 12:29:38;;;;;;;4.05;2.67;;;32.80;70.10;;;;;;5095995;28;20028;-44
2021/06/09 12:32:15;;;;;;;4.72;2.83;;;32.80;67.80;;;;;;5076280;28;20046;-45
2021/06/09 12:34:42;;;;;;;3.97;2.90;;;33.00;70.20;;;;;;5076607;28;20036;-42
2021/06/09 12:37:09;;;;;;;7.82;3.13;;;33.10;68.60;;;;;;5080794;28;20035;-42
2021/06/09 12:39:38;;;;;;;3.65;2.40;;;33.20;69.90;;;;;;5095463;28;20048;-43
2021/06/09 12:42:15;;;;;;;6.45;2.80;;;33.50;69.80;;;;;;5114550;28;20462;-42
2021/06/09 12:44:50;;;;;;;5.30;3.42;;;33.10;69.70;;;;;;5115574;28;20435;-42
2021/06/09 12:47:28;;;;;;;6.03;5.35;;;33.30;68.90;;;;;;5115543;28;20023;-44
2021/06/09 12:50:15;;;;;;;8.60;2.70;;;33.70;72.50;;;;;;5115420;28;20027;-44
2021/06/09 12:52:42;;;;;;;5.68;3.47;;;33.70;69.30;;;;;;5115419;28;20028;-44
2021/06/09 12:55:10;;;;;;;5.57;3.30;;;33.60;69.90;;;;;;5113244;28;20039;-43
2021/06/09 12:57:37;;;;;;;4.18;3.28;;;34.20;71.90;;;;;;5111694;28;20362;-43
2021/06/09 13:00:20;;;;;;;4.25;3.17;;;34.30;70.20;;;;;;5111577;28;20032;-44
2021/06/09 13:02:45;;;;;;;6.13;4.35;;;34.00;70.70;;;;;;5060776;28;20039;-44
2021/06/09 13:05:15;;;;;;;5.55;3.35;;;;;;;;;;5044066;28;20386;-44
2021/06/09 13:07:42;;;;;;;9.25;6.82;;;;;;;;;;5113733;28;20028;-43
2021/06/09 13:10:08;;;;;;;5.45;3.50;;;33.70;75.20;;;;;;5113089;28;20521;-44
2021/06/09 13:12:34;;;;;;;7.40;4.63;;;33.70;75.30;;;;;;5113575;28;20470;-43